Timmer, North Dakota
Current Conditions -  °F | °C
As of 3:55 PM on Monday 22 Dec 2014 (Local Time) from K7L2 Reporting Station
Light Snow Light Snow  
Wind Chill: 23°   Ceiling: 300
Heat Index: 32°   Visibility: 1.5mi
Dew Point: 32°   Wind: 13mph
Humidity: 100%   Direction: 340°NNW
Pressure: 29.51"   Gusts: 18mph
Location:  46.2767°N, 100.811°W
Report Text: K7L2 222155Z AUTO 34011G16KT 1 1/2SM -SN OVC003 00/00 A2951 RMK AO2 P0001
Loading
Personal Weather Stations






























Interactive Weather Map New forecast layout! Learn more

10-Day Weather Forecast

Advertisements
Track Severe Weather on mobile